sensor_id;sensor_type;location;lat;lon;timestamp;pressure;altitude;pressure_sealevel;temperature
34023;BMP280;20673;48.980;8.138;2022-12-18T00:01:45;101410.72;;;-6.28
34023;BMP280;20673;48.980;8.138;2022-12-18T00:04:22;101414.14;;;-6.30
34023;BMP280;20673;48.980;8.138;2022-12-18T00:06:49;101408.90;;;-6.30
34023;BMP280;20673;48.980;8.138;2022-12-18T00:09:15;101410.59;;;-6.33
34023;BMP280;20673;48.980;8.138;2022-12-18T00:11:41;101400.06;;;-6.37
34023;BMP280;20673;48.980;8.138;2022-12-18T00:14:09;101403.14;;;-6.37
34023;BMP280;20673;48.980;8.138;2022-12-18T00:16:36;101396.47;;;-6.36
34023;BMP280;20673;48.980;8.138;2022-12-18T00:19:03;101400.26;;;-6.40
34023;BMP280;20673;48.980;8.138;2022-12-18T00:21:31;101406.95;;;-6.41
34023;BMP280;20673;48.980;8.138;2022-12-18T00:23:58;101409.97;;;-6.43
34023;BMP280;20673;48.980;8.138;2022-12-18T00:26:27;101412.72;;;-6.46
34023;BMP280;20673;48.980;8.138;2022-12-18T00:28:54;101418.09;;;-6.48
34023;BMP280;20673;48.980;8.138;2022-12-18T00:31:23;101413.33;;;-6.49
34023;BMP280;20673;48.980;8.138;2022-12-18T00:33:50;101412.51;;;-6.49
34023;BMP280;20673;48.980;8.138;2022-12-18T00:36:22;101416.43;;;-6.50
34023;BMP280;20673;48.980;8.138;2022-12-18T00:38:46;101418.31;;;-6.50
34023;BMP280;20673;48.980;8.138;2022-12-18T00:41:14;101412.96;;;-6.51
34023;BMP280;20673;48.980;8.138;2022-12-18T00:43:45;101410.22;;;-6.53
34023;BMP280;20673;48.980;8.138;2022-12-18T00:46:11;101408.76;;;-6.51
34023;BMP280;20673;48.980;8.138;2022-12-18T00:48:37;101408.93;;;-6.53
34023;BMP280;20673;48.980;8.138;2022-12-18T00:51:03;101409.47;;;-6.51
34023;BMP280;20673;48.980;8.138;2022-12-18T00:53:29;101406.43;;;-6.49
34023;BMP280;20673;48.980;8.138;2022-12-18T00:55:55;101412.78;;;-6.47
34023;BMP280;20673;48.980;8.138;2022-12-18T00:58:22;101405.15;;;-6.48
34023;BMP280;20673;48.980;8.138;2022-12-18T01:00:48;101414.81;;;-6.47
34023;BMP280;20673;48.980;8.138;2022-12-18T01:03:14;101416.82;;;-6.47
34023;BMP280;20673;48.980;8.138;2022-12-18T01:05:41;101410.92;;;-6.44
34023;BMP280;20673;48.980;8.138;2022-12-18T01:08:07;101411.92;;;-6.43
34023;BMP280;20673;48.980;8.138;2022-12-18T01:10:33;101416.92;;;-6.40
34023;BMP280;20673;48.980;8.138;2022-12-18T01:12:59;101414.49;;;-6.40
34023;BMP280;20673;48.980;8.138;2022-12-18T01:15:25;101420.42;;;-6.38
34023;BMP280;20673;48.980;8.138;2022-12-18T01:17:54;101416.35;;;-6.40
34023;BMP280;20673;48.980;8.138;2022-12-18T01:20:20;101403.06;;;-6.41
34023;BMP280;20673;48.980;8.138;2022-12-18T01:22:46;101396.75;;;-6.41
34023;BMP280;20673;48.980;8.138;2022-12-18T01:25:12;101397.73;;;-6.41
34023;BMP280;20673;48.980;8.138;2022-12-18T01:27:38;101394.76;;;-6.40
34023;BMP280;20673;48.980;8.138;2022-12-18T01:30:05;101405.42;;;-6.41
34023;BMP280;20673;48.980;8.138;2022-12-18T01:32:32;101417.83;;;-6.41
34023;BMP280;20673;48.980;8.138;2022-12-18T01:34:58;101429.61;;;-6.40
34023;BMP280;20673;48.980;8.138;2022-12-18T01:37:24;101420.39;;;-6.43
34023;BMP280;20673;48.980;8.138;2022-12-18T01:39:52;101417.56;;;-6.44
34023;BMP280;20673;48.980;8.138;2022-12-18T01:42:20;101418.33;;;-6.46
34023;BMP280;20673;48.980;8.138;2022-12-18T01:45:01;101416.65;;;-6.47
34023;BMP280;20673;48.980;8.138;2022-12-18T01:47:39;101415.29;;;-6.50
34023;BMP280;20673;48.980;8.138;2022-12-18T01:50:18;101408.68;;;-6.49
34023;BMP280;20673;48.980;8.138;2022-12-18T01:52:50;101419.11;;;-6.51
34023;BMP280;20673;48.980;8.138;2022-12-18T01:55:20;101424.29;;;-6.50
34023;BMP280;20673;48.980;8.138;2022-12-18T01:57:46;101419.93;;;-6.52
34023;BMP280;20673;48.980;8.138;2022-12-18T02:00:16;101414.33;;;-6.54
34023;BMP280;20673;48.980;8.138;2022-12-18T02:02:43;101417.16;;;-6.57
34023;BMP280;20673;48.980;8.138;2022-12-18T02:05:10;101422.67;;;-6.60
34023;BMP280;20673;48.980;8.138;2022-12-18T02:07:55;101420.56;;;-6.63
34023;BMP280;20673;48.980;8.138;2022-12-18T02:18:37;101426.58;;;-6.72
34023;BMP280;20673;48.980;8.138;2022-12-18T02:24:02;101430.08;;;-6.78
34023;BMP280;20673;48.980;8.138;2022-12-18T02:26:36;101430.94;;;-6.78
34023;BMP280;20673;48.980;8.138;2022-12-18T02:29:07;101436.50;;;-6.83
34023;BMP280;20673;48.980;8.138;2022-12-18T02:31:42;101435.23;;;-6.85
34023;BMP280;20673;48.980;8.138;2022-12-18T02:34:09;101431.97;;;-6.89
34023;BMP280;20673;48.980;8.138;2022-12-18T02:36:38;101429.86;;;-6.92
34023;BMP280;20673;48.980;8.138;2022-12-18T02:39:07;101420.47;;;-6.94
34023;BMP280;20673;48.980;8.138;2022-12-18T02:41:34;101417.00;;;-6.97
34023;BMP280;20673;48.980;8.138;2022-12-18T02:44:07;101422.16;;;-6.97
34023;BMP280;20673;48.980;8.138;2022-12-18T02:52:17;101430.54;;;-7.04
34023;BMP280;20673;48.980;8.138;2022-12-18T02:57:37;101436.66;;;-7.08
34023;BMP280;20673;48.980;8.138;2022-12-18T03:00:10;101429.89;;;-7.11
34023;BMP280;20673;48.980;8.138;2022-12-18T03:05:43;101423.78;;;-7.13
34023;BMP280;20673;48.980;8.138;2022-12-18T03:08:13;101432.97;;;-7.14
34023;BMP280;20673;48.980;8.138;2022-12-18T03:10:45;101432.19;;;-7.15
34023;BMP280;20673;48.980;8.138;2022-12-18T03:13:25;101433.46;;;-7.14
34023;BMP280;20673;48.980;8.138;2022-12-18T03:15:49;101432.03;;;-7.18
34023;BMP280;20673;48.980;8.138;2022-12-18T03:18:20;101438.15;;;-7.19
34023;BMP280;20673;48.980;8.138;2022-12-18T03:20:48;101444.86;;;-7.22
34023;BMP280;20673;48.980;8.138;2022-12-18T03:23:18;101442.17;;;-7.19
34023;BMP280;20673;48.980;8.138;2022-12-18T03:25:46;101448.93;;;-7.20
34023;BMP280;20673;48.980;8.138;2022-12-18T03:28:15;101447.90;;;-7.23
34023;BMP280;20673;48.980;8.138;2022-12-18T03:30:43;101444.72;;;-7.27
34023;BMP280;20673;48.980;8.138;2022-12-18T03:33:25;101442.11;;;-7.25
34023;BMP280;20673;48.980;8.138;2022-12-18T03:35:51;101429.66;;;-7.28
34023;BMP280;20673;48.980;8.138;2022-12-18T03:38:17;101424.75;;;-7.28
34023;BMP280;20673;48.980;8.138;2022-12-18T03:41:09;101416.37;;;-7.30
34023;BMP280;20673;48.980;8.138;2022-12-18T03:51:57;101427.43;;;-7.39
34023;BMP280;20673;48.980;8.138;2022-12-18T03:54:22;101422.81;;;-7.41
34023;BMP280;20673;48.980;8.138;2022-12-18T03:56:53;101425.65;;;-7.39
34023;BMP280;20673;48.980;8.138;2022-12-18T03:59:19;101427.08;;;-7.38
34023;BMP280;20673;48.980;8.138;2022-12-18T04:01:47;101433.47;;;-7.34
34023;BMP280;20673;48.980;8.138;2022-12-18T04:04:16;101433.29;;;-7.29
34023;BMP280;20673;48.980;8.138;2022-12-18T04:06:45;101430.52;;;-7.23
34023;BMP280;20673;48.980;8.138;2022-12-18T04:09:13;101434.40;;;-7.18
34023;BMP280;20673;48.980;8.138;2022-12-18T04:11:41;101430.75;;;-7.12
34023;BMP280;20673;48.980;8.138;2022-12-18T04:14:09;101430.61;;;-7.05
34023;BMP280;20673;48.980;8.138;2022-12-18T04:16:35;101434.04;;;-7.01
34023;BMP280;20673;48.980;8.138;2022-12-18T04:19:01;101431.36;;;-6.94
34023;BMP280;20673;48.980;8.138;2022-12-18T04:21:27;101434.61;;;-6.91
34023;BMP280;20673;48.980;8.138;2022-12-18T04:23:53;101428.67;;;-6.89
34023;BMP280;20673;48.980;8.138;2022-12-18T04:26:19;101424.06;;;-6.86
34023;BMP280;20673;48.980;8.138;2022-12-18T04:28:45;101415.50;;;-6.83
34023;BMP280;20673;48.980;8.138;2022-12-18T04:31:12;101424.92;;;-6.80
34023;BMP280;20673;48.980;8.138;2022-12-18T04:33:39;101428.93;;;-6.76
34023;BMP280;20673;48.980;8.138;2022-12-18T04:36:05;101433.59;;;-6.73
34023;BMP280;20673;48.980;8.138;2022-12-18T04:38:31;101433.58;;;-6.70
34023;BMP280;20673;48.980;8.138;2022-12-18T04:40:58;101423.54;;;-6.67
34023;BMP280;20673;48.980;8.138;2022-12-18T04:43:24;101422.59;;;-6.67
34023;BMP280;20673;48.980;8.138;2022-12-18T04:45:50;101427.81;;;-6.64
34023;BMP280;20673;48.980;8.138;2022-12-18T04:48:16;101429.37;;;-6.64
34023;BMP280;20673;48.980;8.138;2022-12-18T04:50:42;101431.03;;;-6.62
34023;BMP280;20673;48.980;8.138;2022-12-18T04:53:08;101430.93;;;-6.62
34023;BMP280;20673;48.980;8.138;2022-12-18T04:55:34;101433.52;;;-6.59
34023;BMP280;20673;48.980;8.138;2022-12-18T04:58:00;101432.51;;;-6.58
34023;BMP280;20673;48.980;8.138;2022-12-18T05:00:26;101438.33;;;-6.58
34023;BMP280;20673;48.980;8.138;2022-12-18T05:02:52;101439.98;;;-6.56
34023;BMP280;20673;48.980;8.138;2022-12-18T05:05:18;101439.83;;;-6.56
34023;BMP280;20673;48.980;8.138;2022-12-18T05:07:44;101439.33;;;-6.53
34023;BMP280;20673;48.980;8.138;2022-12-18T05:10:10;101441.14;;;-6.51
34023;BMP280;20673;48.980;8.138;2022-12-18T05:12:36;101444.40;;;-6.50
34023;BMP280;20673;48.980;8.138;2022-12-18T05:15:05;101443.33;;;-6.47
34023;BMP280;20673;48.980;8.138;2022-12-18T05:17:31;101439.30;;;-6.43
34023;BMP280;20673;48.980;8.138;2022-12-18T05:19:57;101433.31;;;-6.41
34023;BMP280;20673;48.980;8.138;2022-12-18T05:22:23;101432.55;;;-6.38
34023;BMP280;20673;48.980;8.138;2022-12-18T05:24:50;101435.48;;;-6.37
34023;BMP280;20673;48.980;8.138;2022-12-18T05:27:16;101440.51;;;-6.36
34023;BMP280;20673;48.980;8.138;2022-12-18T05:29:42;101451.70;;;-6.32
34023;BMP280;20673;48.980;8.138;2022-12-18T05:32:08;101445.68;;;-6.30
34023;BMP280;20673;48.980;8.138;2022-12-18T05:34:34;101439.03;;;-6.28
34023;BMP280;20673;48.980;8.138;2022-12-18T05:37:00;101436.21;;;-6.26
34023;BMP280;20673;48.980;8.138;2022-12-18T05:39:26;101435.64;;;-6.24
34023;BMP280;20673;48.980;8.138;2022-12-18T05:41:52;101442.84;;;-6.26
34023;BMP280;20673;48.980;8.138;2022-12-18T05:44:18;101440.39;;;-6.25
34023;BMP280;20673;48.980;8.138;2022-12-18T05:46:44;101446.72;;;-6.20
34023;BMP280;20673;48.980;8.138;2022-12-18T05:49:10;101444.12;;;-6.20
34023;BMP280;20673;48.980;8.138;2022-12-18T05:51:36;101445.87;;;-6.22
34023;BMP280;20673;48.980;8.138;2022-12-18T05:54:02;101449.46;;;-6.21
34023;BMP280;20673;48.980;8.138;2022-12-18T05:56:28;101451.38;;;-6.22
34023;BMP280;20673;48.980;8.138;2022-12-18T05:58:54;101449.72;;;-6.24
34023;BMP280;20673;48.980;8.138;2022-12-18T06:01:23;101448.96;;;-6.25
34023;BMP280;20673;48.980;8.138;2022-12-18T06:03:50;101450.24;;;-6.22
34023;BMP280;20673;48.980;8.138;2022-12-18T06:06:19;101451.34;;;-6.24
34023;BMP280;20673;48.980;8.138;2022-12-18T06:08:47;101467.75;;;-6.26
34023;BMP280;20673;48.980;8.138;2022-12-18T06:11:16;101472.48;;;-6.26
34023;BMP280;20673;48.980;8.138;2022-12-18T06:13:42;101477.59;;;-6.25
34023;BMP280;20673;48.980;8.138;2022-12-18T06:16:08;101484.99;;;-6.30
34023;BMP280;20673;48.980;8.138;2022-12-18T06:18:34;101487.76;;;-6.28
34023;BMP280;20673;48.980;8.138;2022-12-18T06:21:02;101487.79;;;-6.27
34023;BMP280;20673;48.980;8.138;2022-12-18T06:23:28;101488.42;;;-6.28
34023;BMP280;20673;48.980;8.138;2022-12-18T06:25:54;101491.33;;;-6.28
34023;BMP280;20673;48.980;8.138;2022-12-18T06:28:21;101496.28;;;-6.28
34023;BMP280;20673;48.980;8.138;2022-12-18T06:30:47;101501.14;;;-6.28
34023;BMP280;20673;48.980;8.138;2022-12-18T06:33:14;101492.73;;;-6.28
34023;BMP280;20673;48.980;8.138;2022-12-18T06:35:41;101487.09;;;-6.27
34023;BMP280;20673;48.980;8.138;2022-12-18T06:38:07;101484.87;;;-6.28
34023;BMP280;20673;48.980;8.138;2022-12-18T06:40:33;101493.62;;;-6.27
34023;BMP280;20673;48.980;8.138;2022-12-18T06:42:59;101506.35;;;-6.26
34023;BMP280;20673;48.980;8.138;2022-12-18T06:45:25;101512.47;;;-6.28
34023;BMP280;20673;48.980;8.138;2022-12-18T06:47:51;101512.36;;;-6.28
34023;BMP280;20673;48.980;8.138;2022-12-18T06:50:17;101514.08;;;-6.28
34023;BMP280;20673;48.980;8.138;2022-12-18T06:52:44;101506.45;;;-6.29
34023;BMP280;20673;48.980;8.138;2022-12-18T06:55:10;101510.26;;;-6.25
34023;BMP280;20673;48.980;8.138;2022-12-18T06:57:37;101512.48;;;-6.24
34023;BMP280;20673;48.980;8.138;2022-12-18T07:00:06;101508.83;;;-6.21
34023;BMP280;20673;48.980;8.138;2022-12-18T07:02:32;101506.68;;;-6.19
34023;BMP280;20673;48.980;8.138;2022-12-18T07:04:58;101512.65;;;-6.20
34023;BMP280;20673;48.980;8.138;2022-12-18T07:07:24;101512.59;;;-6.15
34023;BMP280;20673;48.980;8.138;2022-12-18T07:09:51;101516.84;;;-6.10
34023;BMP280;20673;48.980;8.138;2022-12-18T07:12:18;101524.59;;;-6.11
34023;BMP280;20673;48.980;8.138;2022-12-18T07:14:45;101521.18;;;-6.05
34023;BMP280;20673;48.980;8.138;2022-12-18T07:17:15;101519.80;;;-6.04
34023;BMP280;20673;48.980;8.138;2022-12-18T07:19:41;101516.17;;;-6.04
34023;BMP280;20673;48.980;8.138;2022-12-18T07:22:07;101508.94;;;-6.02
34023;BMP280;20673;48.980;8.138;2022-12-18T07:24:33;101507.47;;;-6.02
34023;BMP280;20673;48.980;8.138;2022-12-18T07:27:00;101513.86;;;-6.02
34023;BMP280;20673;48.980;8.138;2022-12-18T07:29:26;101517.49;;;-6.00
34023;BMP280;20673;48.980;8.138;2022-12-18T07:31:52;101517.11;;;-5.99
34023;BMP280;20673;48.980;8.138;2022-12-18T07:34:18;101524.45;;;-6.00
34023;BMP280;20673;48.980;8.138;2022-12-18T07:36:44;101523.17;;;-6.02
34023;BMP280;20673;48.980;8.138;2022-12-18T07:39:13;101524.02;;;-5.97
34023;BMP280;20673;48.980;8.138;2022-12-18T07:41:40;101529.96;;;-6.00
34023;BMP280;20673;48.980;8.138;2022-12-18T07:44:10;101537.41;;;-6.06
34023;BMP280;20673;48.980;8.138;2022-12-18T07:46:36;101544.68;;;-6.09
34023;BMP280;20673;48.980;8.138;2022-12-18T07:49:02;101544.18;;;-6.07
34023;BMP280;20673;48.980;8.138;2022-12-18T07:51:30;101544.23;;;-6.07
34023;BMP280;20673;48.980;8.138;2022-12-18T07:53:57;101554.03;;;-6.05
34023;BMP280;20673;48.980;8.138;2022-12-18T07:56:23;101548.75;;;-6.02
34023;BMP280;20673;48.980;8.138;2022-12-18T07:58:59;101548.15;;;-6.03
34023;BMP280;20673;48.980;8.138;2022-12-18T08:01:25;101540.84;;;-5.98
34023;BMP280;20673;48.980;8.138;2022-12-18T08:03:51;101551.43;;;-5.94
34023;BMP280;20673;48.980;8.138;2022-12-18T08:06:17;101552.22;;;-5.95
34023;BMP280;20673;48.980;8.138;2022-12-18T08:08:45;101557.25;;;-5.91
34023;BMP280;20673;48.980;8.138;2022-12-18T08:11:15;101556.26;;;-5.89
34023;BMP280;20673;48.980;8.138;2022-12-18T08:13:41;101563.24;;;-5.88
34023;BMP280;20673;48.980;8.138;2022-12-18T08:16:07;101562.92;;;-5.85
34023;BMP280;20673;48.980;8.138;2022-12-18T08:18:35;101566.65;;;-5.87
34023;BMP280;20673;48.980;8.138;2022-12-18T08:21:16;101559.11;;;-5.84
34023;BMP280;20673;48.980;8.138;2022-12-18T08:23:40;101559.47;;;-5.79
34023;BMP280;20673;48.980;8.138;2022-12-18T08:26:07;101556.37;;;-5.80
34023;BMP280;20673;48.980;8.138;2022-12-18T08:28:33;101553.29;;;-5.87
34023;BMP280;20673;48.980;8.138;2022-12-18T08:31:00;101551.20;;;-5.83
34023;BMP280;20673;48.980;8.138;2022-12-18T08:33:26;101553.01;;;-5.81
34023;BMP280;20673;48.980;8.138;2022-12-18T08:35:52;101547.88;;;-5.81
34023;BMP280;20673;48.980;8.138;2022-12-18T08:38:18;101544.23;;;-5.80
34023;BMP280;20673;48.980;8.138;2022-12-18T08:40:45;101530.93;;;-5.75
34023;BMP280;20673;48.980;8.138;2022-12-18T08:43:11;101528.22;;;-5.69
34023;BMP280;20673;48.980;8.138;2022-12-18T08:45:56;101519.00;;;-5.60
34023;BMP280;20673;48.980;8.138;2022-12-18T08:48:22;101516.51;;;-5.57
34023;BMP280;20673;48.980;8.138;2022-12-18T08:50:56;101505.86;;;-5.52
34023;BMP280;20673;48.980;8.138;2022-12-18T08:53:22;101499.70;;;-5.45
34023;BMP280;20673;48.980;8.138;2022-12-18T08:55:48;101502.07;;;-5.45
34023;BMP280;20673;48.980;8.138;2022-12-18T08:58:14;101506.85;;;-5.40
34023;BMP280;20673;48.980;8.138;2022-12-18T09:00:40;101512.67;;;-5.37
34023;BMP280;20673;48.980;8.138;2022-12-18T09:03:15;101513.15;;;-5.37
34023;BMP280;20673;48.980;8.138;2022-12-18T09:05:41;101521.26;;;-5.36
34023;BMP280;20673;48.980;8.138;2022-12-18T09:08:08;101521.90;;;-5.37
34023;BMP280;20673;48.980;8.138;2022-12-18T09:10:45;101520.92;;;-5.34
34023;BMP280;20673;48.980;8.138;2022-12-18T09:13:12;101531.16;;;-5.39
34023;BMP280;20673;48.980;8.138;2022-12-18T09:15:45;101525.56;;;-5.41
34023;BMP280;20673;48.980;8.138;2022-12-18T09:18:13;101532.03;;;-5.45
34023;BMP280;20673;48.980;8.138;2022-12-18T09:20:40;101534.84;;;-5.46
34023;BMP280;20673;48.980;8.138;2022-12-18T09:23:06;101550.40;;;-5.52
34023;BMP280;20673;48.980;8.138;2022-12-18T09:25:33;101551.32;;;-5.51
34023;BMP280;20673;48.980;8.138;2022-12-18T09:28:16;101558.58;;;-5.49
34023;BMP280;20673;48.980;8.138;2022-12-18T09:30:44;101564.79;;;-5.42
34023;BMP280;20673;48.980;8.138;2022-12-18T09:33:11;101561.08;;;-5.42
34023;BMP280;20673;48.980;8.138;2022-12-18T09:35:38;101556.33;;;-5.45
34023;BMP280;20673;48.980;8.138;2022-12-18T09:38:04;101559.78;;;-5.35
34023;BMP280;20673;48.980;8.138;2022-12-18T09:40:36;101551.74;;;-5.28
34023;BMP280;20673;48.980;8.138;2022-12-18T09:43:04;101551.23;;;-5.33
34023;BMP280;20673;48.980;8.138;2022-12-18T09:45:43;101554.39;;;-5.24
34023;BMP280;20673;48.980;8.138;2022-12-18T09:48:00;101570.30;;;-5.15
34023;BMP280;20673;48.980;8.138;2022-12-18T09:50:32;101586.92;;;-5.16
34023;BMP280;20673;48.980;8.138;2022-12-18T09:53:09;101590.57;;;-5.15
34023;BMP280;20673;48.980;8.138;2022-12-18T09:55:37;101589.32;;;-5.04
34023;BMP280;20673;48.980;8.138;2022-12-18T10:00:46;101587.21;;;-5.01
34023;BMP280;20673;48.980;8.138;2022-12-18T10:03:13;101588.08;;;-4.97
34023;BMP280;20673;48.980;8.138;2022-12-18T10:06:02;101584.54;;;-4.91
34023;BMP280;20673;48.980;8.138;2022-12-18T10:13:53;101577.68;;;-4.70
34023;BMP280;20673;48.980;8.138;2022-12-18T10:16:36;101570.51;;;-4.67
34023;BMP280;20673;48.980;8.138;2022-12-18T10:24:53;101562.25;;;-4.62
34023;BMP280;20673;48.980;8.138;2022-12-18T10:27:18;101558.89;;;-4.61
34023;BMP280;20673;48.980;8.138;2022-12-18T10:29:46;101559.72;;;-4.55
34023;BMP280;20673;48.980;8.138;2022-12-18T10:32:21;101561.67;;;-4.55
34023;BMP280;20673;48.980;8.138;2022-12-18T10:34:49;101560.28;;;-4.50
34023;BMP280;20673;48.980;8.138;2022-12-18T10:37:17;101550.59;;;-4.42
34023;BMP280;20673;48.980;8.138;2022-12-18T10:39:45;101544.05;;;-4.41
34023;BMP280;20673;48.980;8.138;2022-12-18T10:42:16;101561.92;;;-4.40
34023;BMP280;20673;48.980;8.138;2022-12-18T10:44:41;101560.06;;;-4.36
34023;BMP280;20673;48.980;8.138;2022-12-18T10:47:11;101556.68;;;-4.33
34023;BMP280;20673;48.980;8.138;2022-12-18T10:49:39;101545.97;;;-4.33
34023;BMP280;20673;48.980;8.138;2022-12-18T10:52:21;101537.83;;;-4.31
34023;BMP280;20673;48.980;8.138;2022-12-18T10:54:59;101540.14;;;-4.29
34023;BMP280;20673;48.980;8.138;2022-12-18T10:57:35;101544.08;;;-4.20
34023;BMP280;20673;48.980;8.138;2022-12-18T11:00:28;101540.29;;;-4.24
34023;BMP280;20673;48.980;8.138;2022-12-18T11:02:55;101552.22;;;-4.18
34023;BMP280;20673;48.980;8.138;2022-12-18T11:05:30;101552.83;;;-4.16
34023;BMP280;20673;48.980;8.138;2022-12-18T11:07:58;101548.08;;;-4.09
34023;BMP280;20673;48.980;8.138;2022-12-18T11:10:36;101548.26;;;-4.12
34023;BMP280;20673;48.980;8.138;2022-12-18T11:15:40;101546.03;;;-4.04
34023;BMP280;20673;48.980;8.138;2022-12-18T11:18:25;101536.81;;;-4.01
34023;BMP280;20673;48.980;8.138;2022-12-18T11:20:55;101533.08;;;-4.01
34023;BMP280;20673;48.980;8.138;2022-12-18T11:23:23;101536.54;;;-4.00
34023;BMP280;20673;48.980;8.138;2022-12-18T11:25:59;101529.95;;;-4.05
34023;BMP280;20673;48.980;8.138;2022-12-18T11:28:37;101527.61;;;-3.94
34023;BMP280;20673;48.980;8.138;2022-12-18T11:31:27;101526.81;;;-3.93
34023;BMP280;20673;48.980;8.138;2022-12-18T11:36:29;101525.49;;;-3.83
34023;BMP280;20673;48.980;8.138;2022-12-18T11:38:58;101522.08;;;-3.78
34023;BMP280;20673;48.980;8.138;2022-12-18T11:41:32;101523.58;;;-3.69
34023;BMP280;20673;48.980;8.138;2022-12-18T11:44:03;101519.67;;;-3.75
34023;BMP280;20673;48.980;8.138;2022-12-18T11:46:34;101515.71;;;-3.69
34023;BMP280;20673;48.980;8.138;2022-12-18T11:49:22;101514.90;;;-3.68
34023;BMP280;20673;48.980;8.138;2022-12-18T11:51:58;101516.76;;;-3.67
34023;BMP280;20673;48.980;8.138;2022-12-18T11:54:25;101522.56;;;-3.66
34023;BMP280;20673;48.980;8.138;2022-12-18T11:56:57;101513.67;;;-3.62
34023;BMP280;20673;48.980;8.138;2022-12-18T12:05:04;101492.54;;;-3.56
34023;BMP280;20673;48.980;8.138;2022-12-18T12:07:43;101495.29;;;-3.56
34023;BMP280;20673;48.980;8.138;2022-12-18T12:10:28;101506.18;;;-3.56
34023;BMP280;20673;48.980;8.138;2022-12-18T12:27:05;101502.89;;;-3.67
34023;BMP280;20673;48.980;8.138;2022-12-18T12:38:05;101499.89;;;-3.49
34023;BMP280;20673;48.980;8.138;2022-12-18T12:40:35;101502.51;;;-3.52
34023;BMP280;20673;48.980;8.138;2022-12-18T12:43:07;101497.48;;;-3.46
34023;BMP280;20673;48.980;8.138;2022-12-18T12:45:53;101493.66;;;-3.41
34023;BMP280;20673;48.980;8.138;2022-12-18T12:48:24;101487.90;;;-3.45
34023;BMP280;20673;48.980;8.138;2022-12-18T12:50:47;101486.39;;;-3.43
34023;BMP280;20673;48.980;8.138;2022-12-18T12:53:19;101483.50;;;-3.46
34023;BMP280;20673;48.980;8.138;2022-12-18T12:55:43;101478.97;;;-3.51
34023;BMP280;20673;48.980;8.138;2022-12-18T13:01:28;101464.22;;;-3.61
34023;BMP280;20673;48.980;8.138;2022-12-18T13:04:06;101463.44;;;-3.58
34023;BMP280;20673;48.980;8.138;2022-12-18T13:06:47;101462.93;;;-3.60
34023;BMP280;20673;48.980;8.138;2022-12-18T13:09:12;101457.71;;;-3.56
34023;BMP280;20673;48.980;8.138;2022-12-18T13:11:44;101453.76;;;-3.61
34023;BMP280;20673;48.980;8.138;2022-12-18T13:19:52;101451.85;;;-3.64
34023;BMP280;20673;48.980;8.138;2022-12-18T13:24:49;101441.16;;;-3.60
34023;BMP280;20673;48.980;8.138;2022-12-18T13:41:04;101425.08;;;-3.40
34023;BMP280;20673;48.980;8.138;2022-12-18T13:43:33;101429.50;;;-3.37
34023;BMP280;20673;48.980;8.138;2022-12-18T13:46:50;101428.04;;;-3.44
34023;BMP280;20673;48.980;8.138;2022-12-18T13:48:36;101427.03;;;-3.40
34023;BMP280;20673;48.980;8.138;2022-12-18T13:51:10;101419.09;;;-3.37
34023;BMP280;20673;48.980;8.138;2022-12-18T13:53:39;101415.91;;;-3.36
34023;BMP280;20673;48.980;8.138;2022-12-18T13:56:06;101417.18;;;-3.31
34023;BMP280;20673;48.980;8.138;2022-12-18T13:58:32;101415.40;;;-3.31
34023;BMP280;20673;48.980;8.138;2022-12-18T14:00:59;101416.00;;;-3.38
34023;BMP280;20673;48.980;8.138;2022-12-18T14:03:28;101415.70;;;-3.43
34023;BMP280;20673;48.980;8.138;2022-12-18T14:06:01;101416.54;;;-3.38
34023;BMP280;20673;48.980;8.138;2022-12-18T14:08:25;101418.37;;;-3.42
34023;BMP280;20673;48.980;8.138;2022-12-18T14:10:53;101412.45;;;-3.43
34023;BMP280;20673;48.980;8.138;2022-12-18T14:13:31;101410.01;;;-3.43
34023;BMP280;20673;48.980;8.138;2022-12-18T14:16:01;101403.81;;;-3.38
34023;BMP280;20673;48.980;8.138;2022-12-18T14:21:16;101412.68;;;-3.29
34023;BMP280;20673;48.980;8.138;2022-12-18T14:23:39;101411.47;;;-3.35
34023;BMP280;20673;48.980;8.138;2022-12-18T14:26:30;101408.37;;;-3.37
34023;BMP280;20673;48.980;8.138;2022-12-18T14:28:57;101404.49;;;-3.34
34023;BMP280;20673;48.980;8.138;2022-12-18T14:31:25;101402.84;;;-3.29
34023;BMP280;20673;48.980;8.138;2022-12-18T14:33:52;101404.39;;;-3.29
34023;BMP280;20673;48.980;8.138;2022-12-18T14:36:20;101402.31;;;-3.34
34023;BMP280;20673;48.980;8.138;2022-12-18T14:38:52;101403.54;;;-3.39
34023;BMP280;20673;48.980;8.138;2022-12-18T14:41:20;101396.39;;;-3.39
34023;BMP280;20673;48.980;8.138;2022-12-18T14:43:49;101392.04;;;-3.50
34023;BMP280;20673;48.980;8.138;2022-12-18T14:49:02;101396.45;;;-3.64
34023;BMP280;20673;48.980;8.138;2022-12-18T14:51:33;101398.92;;;-3.68
34023;BMP280;20673;48.980;8.138;2022-12-18T14:54:05;101404.67;;;-3.69
34023;BMP280;20673;48.980;8.138;2022-12-18T14:56:37;101401.50;;;-3.70
34023;BMP280;20673;48.980;8.138;2022-12-18T14:59:15;101403.51;;;-3.78
34023;BMP280;20673;48.980;8.138;2022-12-18T15:04:38;101400.04;;;-3.94
34023;BMP280;20673;48.980;8.138;2022-12-18T15:07:17;101400.65;;;-3.98
34023;BMP280;20673;48.980;8.138;2022-12-18T15:10:00;101404.42;;;-4.01
34023;BMP280;20673;48.980;8.138;2022-12-18T15:21:07;101393.55;;;-4.20
34023;BMP280;20673;48.980;8.138;2022-12-18T15:23:36;101394.15;;;-4.28
34023;BMP280;20673;48.980;8.138;2022-12-18T15:26:06;101400.28;;;-4.31
34023;BMP280;20673;48.980;8.138;2022-12-18T15:28:38;101410.39;;;-4.33
34023;BMP280;20673;48.980;8.138;2022-12-18T15:33:43;101407.47;;;-4.38
34023;BMP280;20673;48.980;8.138;2022-12-18T15:36:14;101403.03;;;-4.43
34023;BMP280;20673;48.980;8.138;2022-12-18T15:38:40;101392.63;;;-4.45
34023;BMP280;20673;48.980;8.138;2022-12-18T15:41:15;101393.56;;;-4.46
34023;BMP280;20673;48.980;8.138;2022-12-18T15:43:41;101396.10;;;-4.45
34023;BMP280;20673;48.980;8.138;2022-12-18T15:46:16;101393.45;;;-4.49
34023;BMP280;20673;48.980;8.138;2022-12-18T15:48:46;101397.50;;;-4.50
34023;BMP280;20673;48.980;8.138;2022-12-18T15:53:48;101405.86;;;-4.48
34023;BMP280;20673;48.980;8.138;2022-12-18T15:56:16;101403.51;;;-4.50
34023;BMP280;20673;48.980;8.138;2022-12-18T15:59:01;101402.96;;;-4.47
34023;BMP280;20673;48.980;8.138;2022-12-18T16:01:29;101400.26;;;-4.50
34023;BMP280;20673;48.980;8.138;2022-12-18T16:03:57;101394.92;;;-4.49
34023;BMP280;20673;48.980;8.138;2022-12-18T16:06:23;101393.94;;;-4.49
34023;BMP280;20673;48.980;8.138;2022-12-18T16:08:49;101394.82;;;-4.49
34023;BMP280;20673;48.980;8.138;2022-12-18T16:11:27;101402.04;;;-4.50
34023;BMP280;20673;48.980;8.138;2022-12-18T16:14:26;101394.86;;;-4.51